Boca Raton, FL (33427)

12:32 PM EDT on August 02, 2015 (GMT -0400)
Boca Surf Cam . Com | | Change Station
CLOSE
Current Station
Personal Weather Station
Location: Boca Raton, FL
Elevation: 26 ft
Nearby Weather Stations

Elev 26 ft 26.35 °N, 80.07 °W | Updated 5 minutes ago

Partly Cloudy
Partly Cloudy
90.0 °F
Feels Like 96 °F
N
13.0
Wind Variable Wind from South

Today
High -- | Low -- °F
--% Chance of Precip.
Yesterday
High -- | Low -- °F
Precip. -- in
6:46 AM 8:06 PM
Waning Gibbous, 93% visible
Pressure 29.99 in
Visibility 10.0 miles
Clouds Scattered Clouds 2600 ft
Scattered Clouds 15000 ft
Mostly Cloudy 25000 ft
Heat Index 96 °F
Dew Point 70 °F
Humidity 52%
Rainfall 0.09 in
Snow Depth Not available.
UV 7 out of 12
Pollen 3.40 out of 12
Air Quality Not available.
Flu Activity Not available.
METAR KPMP 021553Z 14015G20KT 10SM SCT026 SCT150 BKN250 32/23 A2999 RMK AO2 SLP155 T03220233

More Conditions Fewer Conditions

Pressure 29.99 in
Visibility 10.0 miles
Clouds Scattered Clouds 2600 ft
Scattered Clouds 15000 ft
Mostly Cloudy 25000 ft
Heat Index 96 °F
Dew Point 70 °F
Humidity 52%
Rainfall 0.09 in
Snow Depth Not available.
UV 7 out of 12
Pollen 3.40 out of 12
Air Quality Not available.
Flu Activity Not available.
METAR KPMP 021553Z 14015G20KT 10SM SCT026 SCT150 BKN250 32/23 A2999 RMK AO2 SLP155 T03220233

More Conditions Fewer Conditions

Nowcast | as of 11:34 am EDT on August 2, 2015

Through early this afternoon...isolated to scattered showers and even a thunderstorm will develop along the East Coast sea breeze and push slowly inland through the East Coast Metro areas of South Florida. Any storms that do develop will be capable of producing lightning strikes...gusty winds up to 40 mph...and locally heavy rainfall. If you see lightning or hear thunder move inside until the storms have passed by.

×

10-Day Weather Forecast

×

Almanac

Astronomy

Aug. 02, 2015 Rise Set
Actual Time
Civil Twilight
Nautical Twilight
Astronomical Twilight
Moon
Length of Visible Light
Length of Day
Tomorrow will be .
, % of the Moon is Illuminated

Today's Extremes

State Highs State Lows

Community

WunderPhotos

Upload Photos

1,843,313 photos uploaded!

WunderBlogs® & News

Nearby

Air Quality

  Air Quality AQ Index Pollutant
Not available.

Snow Depth

Station Depth Elevation

Earthquake Activity

City Distance Mag. Time & Date
Minimum magnitude displayed is 2.5.

Coastal Water Temperatures

Place Temperature

Stations

Nearby Weather Stations

Station Location Temp. Windchill Dew Point Humidity Wind Precip. Elev Updated Type